MOL Modern — V7VS6 — position and weather

sailwx.info

Track history (hours):
 
Tides and Currents Weather Stations Pressure Air Temp Water Temp Dewpoint Dewpoint Depression Visibility Wind Speed Wind Dir Waves Ship Positions

MOL Modern

Last reported at 2017-Mar-22 23:32 UTC. Time now 2017-Mar-23 00:18 UTC.
Position N 34°39' E 135°15'.

Length 302 m; draft 12.4 m.

Type: Ship (hazmat cat A). MMSI: 538004203.

Date/timePositionNaut miles runAvg speedWind from/ knotsBaromVisibWave heightAir tempDewpointWater temp
2017-Mar-22 23:32N 34°39' E 135°15'0 0.0
2017-Mar-22 22:27N 34°39' E 135°15'6 6.8
2017-Mar-22 21:33N 34°33' E 135°14'1716.9
2017-Mar-22 20:33N 34°20' E 135°01'1312.6
2017-Mar-22 19:33N 34°08' E 135°00'1413.7
2017-Mar-22 18:33N 33°54' E 134°60'22818.9
2017-Mar-22 06:27N 34°42' E 139°30'2022.1
2017-Mar-22 05:33N 35°00' E 139°40'1515.2
2017-Mar-22 04:33N 35°15' E 139°46'1111.2
2017-Mar-22 03:33N 35°26' E 139°45'1010.2
2017-Mar-22 02:33N 35°36' E 139°47'1 0.7
2017-Mar-22 01:32N 35°36' E 139°46'0 0.0
2017-Mar-22 00:32N 35°36' E 139°46'0 0.0
2017-Mar-21 23:32N 35°36' E 139°46'0 0.0
2017-Mar-21 22:32N 35°36' E 139°46'0 0.0
2017-Mar-21 21:32N 35°36' E 139°46'0 0.0
2017-Mar-21 20:29N 35°36' E 139°46'0 0.0
2017-Mar-21 19:32N 35°36' E 139°46'0 0.0
2017-Mar-21 18:29N 35°36' E 139°46'0 0.0
2017-Mar-21 17:32N 35°36' E 139°46'0 0.0
2017-Mar-21 16:32N 35°36' E 139°46'0 0.0
2017-Mar-21 15:29N 35°36' E 139°46'0 0.0
2017-Mar-21 14:32N 35°36' E 139°46'0 0.0
2017-Mar-21 13:32N 35°36' E 139°46'0 0.0
2017-Mar-21 12:20N 35°36' E 139°46'0 0.0
2017-Mar-21 11:32N 35°36' E 139°46'0 0.0
2017-Mar-21 10:32N 35°36' E 139°46'1 0.9
2017-Mar-21 09:33N 35°36' E 139°47'9 9.1
2017-Mar-21 08:33N 35°27' E 139°50'1111.2
2017-Mar-21 07:34N 35°17' E 139°46'9 9.3
2017-Mar-21 06:34N 35°07' E 139°46'1111.4
2017-Mar-21 05:33N 34°56' E 139°43'1512.5
2017-Mar-21 04:21N 34°51' E 139°60'  
Track history (hours):
 
Tides and Currents Weather Stations Pressure Air Temp Water Temp Dewpoint Dewpoint Depression Visibility Wind Speed Wind Dir Waves Ship Positions

MOL Modern

Last reported at 2017-Mar-22 23:32 UTC. Time now 2017-Mar-23 00:18 UTC.
Position N 34°39' E 135°15'.

Length 302 m; draft 12.4 m.

Type: Ship (hazmat cat A). MMSI: 538004203.

Date/timePositionNaut miles runAvg speedWind from/ knotsBaromVisibWave heightAir tempDewpointWater temp
2017-Mar-22 23:32N 34°39' E 135°15'0 0.0
2017-Mar-22 22:27N 34°39' E 135°15'6 6.8
2017-Mar-22 21:33N 34°33' E 135°14'1716.9
2017-Mar-22 20:33N 34°20' E 135°01'1312.6
2017-Mar-22 19:33N 34°08' E 135°00'1413.7
2017-Mar-22 18:33N 33°54' E 134°60'22818.9
2017-Mar-22 06:27N 34°42' E 139°30'2022.1
2017-Mar-22 05:33N 35°00' E 139°40'1515.2
2017-Mar-22 04:33N 35°15' E 139°46'1111.2
2017-Mar-22 03:33N 35°26' E 139°45'1010.2
2017-Mar-22 02:33N 35°36' E 139°47'1 0.7
2017-Mar-22 01:32N 35°36' E 139°46'0 0.0
2017-Mar-22 00:32N 35°36' E 139°46'0 0.0
2017-Mar-21 23:32N 35°36' E 139°46'0 0.0
2017-Mar-21 22:32N 35°36' E 139°46'0 0.0
2017-Mar-21 21:32N 35°36' E 139°46'0 0.0
2017-Mar-21 20:29N 35°36' E 139°46'0 0.0
2017-Mar-21 19:32N 35°36' E 139°46'0 0.0
2017-Mar-21 18:29N 35°36' E 139°46'0 0.0
2017-Mar-21 17:32N 35°36' E 139°46'0 0.0
2017-Mar-21 16:32N 35°36' E 139°46'0 0.0
2017-Mar-21 15:29N 35°36' E 139°46'0 0.0
2017-Mar-21 14:32N 35°36' E 139°46'0 0.0
2017-Mar-21 13:32N 35°36' E 139°46'0 0.0
2017-Mar-21 12:20N 35°36' E 139°46'0 0.0
2017-Mar-21 11:32N 35°36' E 139°46'0 0.0
2017-Mar-21 10:32N 35°36' E 139°46'1 0.9
2017-Mar-21 09:33N 35°36' E 139°47'9 9.1
2017-Mar-21 08:33N 35°27' E 139°50'1111.2
2017-Mar-21 07:34N 35°17' E 139°46'9 9.3
2017-Mar-21 06:34N 35°07' E 139°46'1111.4
2017-Mar-21 05:33N 34°56' E 139°43'1512.5
2017-Mar-21 04:21N 34°51' E 139°60'  

Dump ship's entire track history